sensor_id;sensor_type;location;lat;lon;timestamp;pressure;altitude;pressure_sealevel;temperature
70969;BMP280;58630;43.022;25.100;2022-07-04T00:02:21;99446.91;;;29.90
70969;BMP280;58630;43.022;25.100;2022-07-04T00:04:46;99446.91;;;29.90
70969;BMP280;58630;43.022;25.100;2022-07-04T00:07:11;99451.09;;;29.88
70969;BMP280;58630;43.022;25.100;2022-07-04T00:09:37;99445.00;;;29.87
70969;BMP280;58630;43.022;25.100;2022-07-04T00:12:02;99445.03;;;29.84
70969;BMP280;58630;43.022;25.100;2022-07-04T00:14:28;99444.25;;;29.83
70969;BMP280;58630;43.022;25.100;2022-07-04T00:16:53;99441.97;;;29.82
70969;BMP280;58630;43.022;25.100;2022-07-04T00:19:18;99432.03;;;29.79
70969;BMP280;58630;43.022;25.100;2022-07-04T00:21:44;99435.47;;;29.79
70969;BMP280;58630;43.022;25.100;2022-07-04T00:24:09;99429.75;;;29.77
70969;BMP280;58630;43.022;25.100;2022-07-04T00:26:34;99432.81;;;29.76
70969;BMP280;58630;43.022;25.100;2022-07-04T00:29:00;99432.81;;;29.76
70969;BMP280;58630;43.022;25.100;2022-07-04T00:31:25;99442.75;;;29.75
70969;BMP280;58630;43.022;25.100;2022-07-04T00:33:50;99437.06;;;29.67
70969;BMP280;58630;43.022;25.100;2022-07-04T00:36:15;99431.34;;;29.61
70969;BMP280;58630;43.022;25.100;2022-07-04T00:38:41;99432.88;;;29.66
70969;BMP280;58630;43.022;25.100;2022-07-04T00:41:06;99427.09;;;29.67
70969;BMP280;58630;43.022;25.100;2022-07-04T00:43:31;99426.75;;;29.65
70969;BMP280;58630;43.022;25.100;2022-07-04T00:45:57;99421.41;;;29.62
70969;BMP280;58630;43.022;25.100;2022-07-04T00:48:22;99421.41;;;29.62
70969;BMP280;58630;43.022;25.100;2022-07-04T00:50:47;99421.03;;;29.60
70969;BMP280;58630;43.022;25.100;2022-07-04T00:53:16;99424.09;;;29.58
70969;BMP280;58630;43.022;25.100;2022-07-04T00:55:43;99429.47;;;29.55
70969;BMP280;58630;43.022;25.100;2022-07-04T00:58:09;99431.38;;;29.54
70969;BMP280;58630;43.022;25.100;2022-07-04T01:00:35;99437.13;;;29.53
70969;BMP280;58630;43.022;25.100;2022-07-04T01:03:00;99428.72;;;29.51
70969;BMP280;58630;43.022;25.100;2022-07-04T01:05:26;99434.13;;;29.40
70969;BMP280;58630;43.022;25.100;2022-07-04T01:07:51;99434.56;;;29.32
70969;BMP280;58630;43.022;25.100;2022-07-04T01:10:18;99438.75;;;29.29
70969;BMP280;58630;43.022;25.100;2022-07-04T01:12:43;99440.31;;;29.17
70969;BMP280;58630;43.022;25.100;2022-07-04T01:15:09;99443.03;;;29.10
70969;BMP280;58630;43.022;25.100;2022-07-04T01:17:34;99441.88;;;29.04
70969;BMP280;58630;43.022;25.100;2022-07-04T01:20:00;99439.59;;;28.99
70969;BMP280;58630;43.022;25.100;2022-07-04T01:22:25;99438.06;;;28.98
70969;BMP280;58630;43.022;25.100;2022-07-04T01:24:51;99433.47;;;28.95
70969;BMP280;58630;43.022;25.100;2022-07-04T01:27:16;99433.88;;;28.90
70969;BMP280;58630;43.022;25.100;2022-07-04T01:29:43;99427.78;;;28.89
70969;BMP280;58630;43.022;25.100;2022-07-04T01:32:08;99429.31;;;28.87
70969;BMP280;58630;43.022;25.100;2022-07-04T01:34:34;99430.84;;;28.85
70969;BMP280;58630;43.022;25.100;2022-07-04T01:37:00;99438.88;;;28.85
70969;BMP280;58630;43.022;25.100;2022-07-04T01:39:26;99441.13;;;28.93
70969;BMP280;58630;43.022;25.100;2022-07-04T01:41:51;99443.03;;;29.03
70969;BMP280;58630;43.022;25.100;2022-07-04T01:44:17;99432.34;;;28.96
70969;BMP280;58630;43.022;25.100;2022-07-04T01:46:42;99438.06;;;28.91
70969;BMP280;58630;43.022;25.100;2022-07-04T01:49:07;99439.97;;;28.94
70969;BMP280;58630;43.022;25.100;2022-07-04T01:51:33;99449.56;;;28.88
70969;BMP280;58630;43.022;25.100;2022-07-04T01:53:59;99447.66;;;28.85
70969;BMP280;58630;43.022;25.100;2022-07-04T01:56:24;99448.03;;;28.80
70969;BMP280;58630;43.022;25.100;2022-07-04T01:58:49;99449.16;;;28.93
70969;BMP280;58630;43.022;25.100;2022-07-04T02:01:14;99454.88;;;28.95
70969;BMP280;58630;43.022;25.100;2022-07-04T02:03:58;99459.09;;;28.96
70969;BMP280;58630;43.022;25.100;2022-07-04T02:06:24;99450.66;;;28.94
70969;BMP280;58630;43.022;25.100;2022-07-04T02:08:49;99452.63;;;28.93
70969;BMP280;58630;43.022;25.100;2022-07-04T02:11:33;99452.22;;;28.91
70969;BMP280;58630;43.022;25.100;2022-07-04T02:14:18;99455.66;;;28.92
70969;BMP280;58630;43.022;25.100;2022-07-04T02:16:44;99455.28;;;28.90
70969;BMP280;58630;43.022;25.100;2022-07-04T02:19:09;99464.06;;;28.77
70969;BMP280;58630;43.022;25.100;2022-07-04T02:21:34;99466.00;;;28.73
70969;BMP280;58630;43.022;25.100;2022-07-04T02:23:59;99465.22;;;28.65
70969;BMP280;58630;43.022;25.100;2022-07-04T02:26:25;99465.22;;;28.72
70969;BMP280;58630;43.022;25.100;2022-07-04T02:28:51;99470.59;;;28.79
70969;BMP280;58630;43.022;25.100;2022-07-04T02:31:16;99470.19;;;28.77
70969;BMP280;58630;43.022;25.100;2022-07-04T02:33:41;99475.16;;;28.75
70969;BMP280;58630;43.022;25.100;2022-07-04T02:36:06;99475.16;;;28.75
70969;BMP280;58630;43.022;25.100;2022-07-04T02:38:32;99475.16;;;28.75
70969;BMP280;58630;43.022;25.100;2022-07-04T02:40:57;99477.47;;;28.73
70969;BMP280;58630;43.022;25.100;2022-07-04T02:43:22;99483.94;;;28.72
70969;BMP280;58630;43.022;25.100;2022-07-04T02:45:48;99477.47;;;28.73
70969;BMP280;58630;43.022;25.100;2022-07-04T02:48:13;99480.50;;;28.61
70969;BMP280;58630;43.022;25.100;2022-07-04T02:50:38;99483.91;;;28.48
70969;BMP280;58630;43.022;25.100;2022-07-04T02:53:03;99483.53;;;28.39
70969;BMP280;58630;43.022;25.100;2022-07-04T02:55:29;99486.63;;;28.41
70969;BMP280;58630;43.022;25.100;2022-07-04T02:57:54;99483.53;;;28.46
70969;BMP280;58630;43.022;25.100;2022-07-04T03:00:19;99477.81;;;28.44
70969;BMP280;58630;43.022;25.100;2022-07-04T03:02:44;99482.75;;;28.42
70969;BMP280;58630;43.022;25.100;2022-07-04T03:05:10;99484.28;;;28.33
70969;BMP280;58630;43.022;25.100;2022-07-04T03:07:35;99490.41;;;28.30
70969;BMP280;58630;43.022;25.100;2022-07-04T03:10:00;99487.34;;;28.35
70969;BMP280;58630;43.022;25.100;2022-07-04T03:12:26;99491.19;;;28.41
70969;BMP280;58630;43.022;25.100;2022-07-04T03:14:51;99495.41;;;28.42
70969;BMP280;58630;43.022;25.100;2022-07-04T03:17:18;99494.63;;;28.41
70969;BMP280;58630;43.022;25.100;2022-07-04T03:19:43;99497.31;;;28.41
70969;BMP280;58630;43.022;25.100;2022-07-04T03:22:09;99491.56;;;28.42
70969;BMP280;58630;43.022;25.100;2022-07-04T03:24:34;99496.53;;;28.41
70969;BMP280;58630;43.022;25.100;2022-07-04T03:26:59;99483.53;;;28.36
70969;BMP280;58630;43.022;25.100;2022-07-04T03:29:24;99493.81;;;28.34
70969;BMP280;58630;43.022;25.100;2022-07-04T03:31:50;99491.19;;;28.41
70969;BMP280;58630;43.022;25.100;2022-07-04T03:34:16;99491.97;;;28.41
70969;BMP280;58630;43.022;25.100;2022-07-04T03:36:41;99499.19;;;28.41
70969;BMP280;58630;43.022;25.100;2022-07-04T03:39:06;99494.22;;;28.39
70969;BMP280;58630;43.022;25.100;2022-07-04T03:41:32;99499.94;;;28.27
70969;BMP280;58630;43.022;25.100;2022-07-04T03:43:57;99495.69;;;28.16
70969;BMP280;58630;43.022;25.100;2022-07-04T03:46:22;99501.03;;;28.09
70969;BMP280;58630;43.022;25.100;2022-07-04T03:48:48;99497.56;;;28.05
70969;BMP280;58630;43.022;25.100;2022-07-04T03:51:13;99498.38;;;28.05
70969;BMP280;58630;43.022;25.100;2022-07-04T03:53:38;99495.69;;;28.09
70969;BMP280;58630;43.022;25.100;2022-07-04T03:56:04;99492.97;;;28.02
70969;BMP280;58630;43.022;25.100;2022-07-04T03:58:29;99494.09;;;27.91
70969;BMP280;58630;43.022;25.100;2022-07-04T04:00:55;99503.25;;;27.90
70969;BMP280;58630;43.022;25.100;2022-07-04T04:03:20;99506.31;;;27.88
70969;BMP280;58630;43.022;25.100;2022-07-04T04:06:04;99506.31;;;27.88
70969;BMP280;58630;43.022;25.100;2022-07-04T04:08:29;99507.44;;;27.91
70969;BMP280;58630;43.022;25.100;2022-07-04T04:10:54;99513.19;;;27.89
70969;BMP280;58630;43.022;25.100;2022-07-04T04:13:20;99515.44;;;27.80
70969;BMP280;58630;43.022;25.100;2022-07-04T04:15:45;99516.19;;;27.77
70969;BMP280;58630;43.022;25.100;2022-07-04T04:18:10;99523.69;;;27.58
70969;BMP280;58630;43.022;25.100;2022-07-04T04:20:35;99521.75;;;27.52
70969;BMP280;58630;43.022;25.100;2022-07-04T04:23:01;99523.63;;;27.44
70969;BMP280;58630;43.022;25.100;2022-07-04T04:25:26;99526.25;;;27.41
70969;BMP280;58630;43.022;25.100;2022-07-04T04:27:51;99538.81;;;27.37
70969;BMP280;58630;43.022;25.100;2022-07-04T04:30:17;99539.53;;;27.34
70969;BMP280;58630;43.022;25.100;2022-07-04T04:32:42;99535.75;;;27.35
70969;BMP280;58630;43.022;25.100;2022-07-04T04:35:07;99530.00;;;27.29
70969;BMP280;58630;43.022;25.100;2022-07-04T04:37:33;99541.06;;;27.28
70969;BMP280;58630;43.022;25.100;2022-07-04T04:39:58;99528.09;;;27.33
70969;BMP280;58630;43.022;25.100;2022-07-04T04:42:23;99525.06;;;27.35
70969;BMP280;58630;43.022;25.100;2022-07-04T04:44:49;99533.13;;;27.38
70969;BMP280;58630;43.022;25.100;2022-07-04T04:47:14;99533.13;;;27.38
70969;BMP280;58630;43.022;25.100;2022-07-04T04:49:40;99537.38;;;27.50
70969;BMP280;58630;43.022;25.100;2022-07-04T04:52:05;99533.25;;;27.59
70969;BMP280;58630;43.022;25.100;2022-07-04T04:54:31;99546.22;;;27.64
70969;BMP280;58630;43.022;25.100;2022-07-04T04:56:56;99545.13;;;27.68
70969;BMP280;58630;43.022;25.100;2022-07-04T04:59:21;99549.28;;;27.66
70969;BMP280;58630;43.022;25.100;2022-07-04T05:01:47;99549.28;;;27.66
70969;BMP280;58630;43.022;25.100;2022-07-04T05:04:12;99544.38;;;27.71
70969;BMP280;58630;43.022;25.100;2022-07-04T05:06:39;99542.06;;;27.70
70969;BMP280;58630;43.022;25.100;2022-07-04T05:09:05;99544.75;;;27.73
70969;BMP280;58630;43.022;25.100;2022-07-04T05:11:30;99546.69;;;27.80
70969;BMP280;58630;43.022;25.100;2022-07-04T05:13:55;99549.34;;;27.76
70969;BMP280;58630;43.022;25.100;2022-07-04T05:16:21;99544.38;;;27.68
70969;BMP280;58630;43.022;25.100;2022-07-04T05:18:46;99542.78;;;27.56
70969;BMP280;58630;43.022;25.100;2022-07-04T05:21:11;99538.19;;;27.53
70969;BMP280;58630;43.022;25.100;2022-07-04T05:23:36;99544.25;;;27.51
70969;BMP280;58630;43.022;25.100;2022-07-04T05:26:02;99540.84;;;27.53
70969;BMP280;58630;43.022;25.100;2022-07-04T05:28:27;99535.91;;;27.55
70969;BMP280;58630;43.022;25.100;2022-07-04T05:30:52;99529.44;;;27.56
70969;BMP280;58630;43.022;25.100;2022-07-04T05:33:18;99528.69;;;27.59
70969;BMP280;58630;43.022;25.100;2022-07-04T05:35:43;99522.97;;;27.64
70969;BMP280;58630;43.022;25.100;2022-07-04T05:38:08;99522.16;;;27.57
70969;BMP280;58630;43.022;25.100;2022-07-04T05:40:34;99529.75;;;27.52
70969;BMP280;58630;43.022;25.100;2022-07-04T05:42:59;99528.59;;;27.49
70969;BMP280;58630;43.022;25.100;2022-07-04T05:45:24;99528.97;;;27.44
70969;BMP280;58630;43.022;25.100;2022-07-04T05:47:50;99533.91;;;27.46
70969;BMP280;58630;43.022;25.100;2022-07-04T05:50:15;99529.72;;;27.48
70969;BMP280;58630;43.022;25.100;2022-07-04T05:52:40;99522.84;;;27.44
70969;BMP280;58630;43.022;25.100;2022-07-04T05:55:07;99525.50;;;27.40
70969;BMP280;58630;43.022;25.100;2022-07-04T05:57:33;99532.34;;;27.38
70969;BMP280;58630;43.022;25.100;2022-07-04T05:59:58;99526.25;;;27.37
70969;BMP280;58630;43.022;25.100;2022-07-04T06:02:23;99523.53;;;27.34
70969;BMP280;58630;43.022;25.100;2022-07-04T06:04:48;99534.19;;;27.34
70969;BMP280;58630;43.022;25.100;2022-07-04T06:07:14;99526.59;;;27.36
70969;BMP280;58630;43.022;25.100;2022-07-04T06:09:39;99524.31;;;27.34
70969;BMP280;58630;43.022;25.100;2022-07-04T06:12:04;99515.22;;;27.42
70969;BMP280;58630;43.022;25.100;2022-07-04T06:14:30;99517.97;;;27.52
70969;BMP280;58630;43.022;25.100;2022-07-04T06:16:55;99521.00;;;27.54
70969;BMP280;58630;43.022;25.100;2022-07-04T06:19:21;99515.34;;;27.59
70969;BMP280;58630;43.022;25.100;2022-07-04T06:21:46;99515.72;;;27.61
70969;BMP280;58630;43.022;25.100;2022-07-04T06:24:11;99509.59;;;27.61
70969;BMP280;58630;43.022;25.100;2022-07-04T06:26:37;99507.66;;;27.54
70969;BMP280;58630;43.022;25.100;2022-07-04T06:29:02;99502.75;;;27.56
70969;BMP280;58630;43.022;25.100;2022-07-04T06:31:27;99506.94;;;27.64
70969;BMP280;58630;43.022;25.100;2022-07-04T06:33:53;99505.06;;;27.65
70969;BMP280;58630;43.022;25.100;2022-07-04T06:36:37;99496.25;;;27.64
70969;BMP280;58630;43.022;25.100;2022-07-04T06:39:02;99493.25;;;27.62
70969;BMP280;58630;43.022;25.100;2022-07-04T06:41:27;99486.34;;;27.61
70969;BMP280;58630;43.022;25.100;2022-07-04T06:43:52;99483.69;;;27.65
70969;BMP280;58630;43.022;25.100;2022-07-04T06:46:18;99479.88;;;27.66
70969;BMP280;58630;43.022;25.100;2022-07-04T06:48:43;99477.19;;;27.66
70969;BMP280;58630;43.022;25.100;2022-07-04T06:51:08;99466.94;;;27.68
70969;BMP280;58630;43.022;25.100;2022-07-04T06:53:34;99469.25;;;27.73
70969;BMP280;58630;43.022;25.100;2022-07-04T06:55:59;99472.28;;;27.78
70969;BMP280;58630;43.022;25.100;2022-07-04T06:58:24;99480.31;;;27.78
70969;BMP280;58630;43.022;25.100;2022-07-04T07:00:49;99475.72;;;27.79
70969;BMP280;58630;43.022;25.100;2022-07-04T07:03:15;99473.44;;;27.81
70969;BMP280;58630;43.022;25.100;2022-07-04T07:05:40;99471.56;;;27.81
70969;BMP280;58630;43.022;25.100;2022-07-04T07:08:05;99469.69;;;27.85
70969;BMP280;58630;43.022;25.100;2022-07-04T07:10:31;99467.75;;;27.86
70969;BMP280;58630;43.022;25.100;2022-07-04T07:13:00;99468.13;;;27.88
70969;BMP280;58630;43.022;25.100;2022-07-04T07:15:26;99469.31;;;27.90
70969;BMP280;58630;43.022;25.100;2022-07-04T07:17:51;99457.88;;;27.93
70969;BMP280;58630;43.022;25.100;2022-07-04T07:20:16;99456.75;;;27.94
70969;BMP280;58630;43.022;25.100;2022-07-04T07:22:42;99462.44;;;27.96
70969;BMP280;58630;43.022;25.100;2022-07-04T07:25:07;99450.63;;;27.97
70969;BMP280;58630;43.022;25.100;2022-07-04T07:27:33;99451.41;;;27.98
70969;BMP280;58630;43.022;25.100;2022-07-04T07:29:58;99445.66;;;27.99
70969;BMP280;58630;43.022;25.100;2022-07-04T07:32:23;99449.88;;;28.00
70969;BMP280;58630;43.022;25.100;2022-07-04T07:34:49;99443.75;;;27.99
70969;BMP280;58630;43.022;25.100;2022-07-04T07:37:14;99445.31;;;28.00
70969;BMP280;58630;43.022;25.100;2022-07-04T07:39:39;99443.78;;;28.03
70969;BMP280;58630;43.022;25.100;2022-07-04T07:42:05;99443.78;;;28.03
70969;BMP280;58630;43.022;25.100;2022-07-04T07:44:30;99444.94;;;28.05
70969;BMP280;58630;43.022;25.100;2022-07-04T07:46:55;99436.53;;;28.07
70969;BMP280;58630;43.022;25.100;2022-07-04T07:49:21;99440.72;;;28.08
70969;BMP280;58630;43.022;25.100;2022-07-04T07:51:46;99442.25;;;28.09
70969;BMP280;58630;43.022;25.100;2022-07-04T07:54:11;99438.44;;;28.10
70969;BMP280;58630;43.022;25.100;2022-07-04T07:56:38;99440.72;;;28.11
70969;BMP280;58630;43.022;25.100;2022-07-04T07:59:03;99439.97;;;28.11
70969;BMP280;58630;43.022;25.100;2022-07-04T08:01:29;99441.88;;;28.14
70969;BMP280;58630;43.022;25.100;2022-07-04T08:03:54;99439.22;;;28.14
70969;BMP280;58630;43.022;25.100;2022-07-04T08:06:38;99439.25;;;28.21
70969;BMP280;58630;43.022;25.100;2022-07-04T08:09:03;99438.50;;;28.24
70969;BMP280;58630;43.022;25.100;2022-07-04T08:11:29;99429.69;;;28.20
70969;BMP280;58630;43.022;25.100;2022-07-04T08:13:54;99428.56;;;28.21
70969;BMP280;58630;43.022;25.100;2022-07-04T08:16:20;99422.44;;;28.20
70969;BMP280;58630;43.022;25.100;2022-07-04T08:18:45;99425.13;;;28.24
70969;BMP280;58630;43.022;25.100;2022-07-04T08:21:10;99425.50;;;28.29
70969;BMP280;58630;43.022;25.100;2022-07-04T08:23:36;99432.38;;;28.30
70969;BMP280;58630;43.022;25.100;2022-07-04T08:26:01;99419.38;;;28.29
70969;BMP280;58630;43.022;25.100;2022-07-04T08:28:27;99434.28;;;28.30
70969;BMP280;58630;43.022;25.100;2022-07-04T08:30:53;99431.97;;;28.32
70969;BMP280;58630;43.022;25.100;2022-07-04T08:33:18;99419.41;;;28.32
70969;BMP280;58630;43.022;25.100;2022-07-04T08:35:43;99425.09;;;28.31
70969;BMP280;58630;43.022;25.100;2022-07-04T08:38:09;99421.69;;;28.41
70969;BMP280;58630;43.022;25.100;2022-07-04T08:40:34;99430.06;;;28.42
70969;BMP280;58630;43.022;25.100;2022-07-04T08:43:00;99428.56;;;28.42
70969;BMP280;58630;43.022;25.100;2022-07-04T08:45:27;99424.72;;;28.42
70969;BMP280;58630;43.022;25.100;2022-07-04T08:47:59;99430.47;;;28.44
70969;BMP280;58630;43.022;25.100;2022-07-04T08:50:26;99430.06;;;28.46
70969;BMP280;58630;43.022;25.100;2022-07-04T08:52:54;99435.44;;;28.53
70969;BMP280;58630;43.022;25.100;2022-07-04T08:55:21;99428.56;;;28.52
70969;BMP280;58630;43.022;25.100;2022-07-04T08:58:05;99436.19;;;28.57
70969;BMP280;58630;43.022;25.100;2022-07-04T09:00:49;99431.25;;;28.55
70969;BMP280;58630;43.022;25.100;2022-07-04T09:03:15;99432.38;;;28.54
70969;BMP280;58630;43.022;25.100;2022-07-04T09:05:41;99426.25;;;28.54
70969;BMP280;58630;43.022;25.100;2022-07-04T09:08:08;99422.06;;;28.63
70969;BMP280;58630;43.022;25.100;2022-07-04T09:10:33;99417.13;;;28.62
70969;BMP280;58630;43.022;25.100;2022-07-04T09:13:00;99420.13;;;28.60
70969;BMP280;58630;43.022;25.100;2022-07-04T09:15:27;99409.81;;;28.62
70969;BMP280;58630;43.022;25.100;2022-07-04T09:17:53;99417.47;;;28.71
70969;BMP280;58630;43.022;25.100;2022-07-04T09:20:19;99410.19;;;28.71
70969;BMP280;58630;43.022;25.100;2022-07-04T09:22:45;99407.53;;;28.78
70969;BMP280;58630;43.022;25.100;2022-07-04T09:25:10;99397.97;;;28.74
70969;BMP280;58630;43.022;25.100;2022-07-04T09:27:38;99391.88;;;28.73
70969;BMP280;58630;43.022;25.100;2022-07-04T09:30:05;99405.63;;;28.75
70969;BMP280;58630;43.022;25.100;2022-07-04T09:34:59;99399.88;;;28.84
70969;BMP280;58630;43.022;25.100;2022-07-04T09:37:41;99394.53;;;28.84
70969;BMP280;58630;43.022;25.100;2022-07-04T09:40:22;99391.03;;;29.07
70969;BMP280;58630;43.022;25.100;2022-07-04T09:42:48;99388.78;;;28.99
70969;BMP280;58630;43.022;25.100;2022-07-04T09:45:13;99397.16;;;28.94
70969;BMP280;58630;43.022;25.100;2022-07-04T09:47:39;99392.94;;;29.00
70969;BMP280;58630;43.022;25.100;2022-07-04T09:50:06;99397.94;;;29.05
70969;BMP280;58630;43.022;25.100;2022-07-04T09:52:32;99397.94;;;29.01
70969;BMP280;58630;43.022;25.100;2022-07-04T09:55:05;99388.38;;;29.00
70969;BMP280;58630;43.022;25.100;2022-07-04T09:57:31;99385.72;;;29.00
70969;BMP280;58630;43.022;25.100;2022-07-04T09:59:59;99394.84;;;29.06
70969;BMP280;58630;43.022;25.100;2022-07-04T10:02:40;99404.78;;;29.06
70969;BMP280;58630;43.022;25.100;2022-07-04T10:05:07;99401.34;;;29.09
70969;BMP280;58630;43.022;25.100;2022-07-04T10:07:35;99400.94;;;29.14
70969;BMP280;58630;43.022;25.100;2022-07-04T10:10:24;99392.56;;;29.12
70969;BMP280;58630;43.022;25.100;2022-07-04T10:12:53;99390.25;;;29.14
70969;BMP280;58630;43.022;25.100;2022-07-04T10:15:19;99392.91;;;29.14
70969;BMP280;58630;43.022;25.100;2022-07-04T10:17:44;99395.22;;;29.15
70969;BMP280;58630;43.022;25.100;2022-07-04T10:20:10;99389.47;;;29.17
70969;BMP280;58630;43.022;25.100;2022-07-04T10:22:36;99382.19;;;29.17
70969;BMP280;58630;43.022;25.100;2022-07-04T10:25:02;99378.00;;;29.20
70969;BMP280;58630;43.022;25.100;2022-07-04T10:27:28;99382.56;;;29.26
70969;BMP280;58630;43.022;25.100;2022-07-04T10:29:53;99375.31;;;29.23
70969;BMP280;58630;43.022;25.100;2022-07-04T10:32:19;99370.72;;;29.20
70969;BMP280;58630;43.022;25.100;2022-07-04T10:34:45;99374.13;;;29.27
70969;BMP280;58630;43.022;25.100;2022-07-04T10:37:10;99371.44;;;29.27
70969;BMP280;58630;43.022;25.100;2022-07-04T10:39:35;99366.50;;;29.23
70969;BMP280;58630;43.022;25.100;2022-07-04T10:42:01;99365.72;;;29.26
70969;BMP280;58630;43.022;25.100;2022-07-04T10:44:27;99365.31;;;29.34
70969;BMP280;58630;43.022;25.100;2022-07-04T10:47:00;99367.97;;;29.37
70969;BMP280;58630;43.022;25.100;2022-07-04T10:49:26;99363.75;;;29.40
70969;BMP280;58630;43.022;25.100;2022-07-04T10:51:53;99357.28;;;29.34
70969;BMP280;58630;43.022;25.100;2022-07-04T10:54:20;99360.38;;;29.29
70969;BMP280;58630;43.022;25.100;2022-07-04T10:59:27;99346.22;;;29.32
70969;BMP280;58630;43.022;25.100;2022-07-04T11:07:11;99343.47;;;29.42
70969;BMP280;58630;43.022;25.100;2022-07-04T11:09:37;99341.91;;;29.45
70969;BMP280;58630;43.022;25.100;2022-07-04T11:12:03;99342.31;;;29.47
70969;BMP280;58630;43.022;25.100;2022-07-04T11:14:39;99347.63;;;29.50
70969;BMP280;58630;43.022;25.100;2022-07-04T11:17:05;99342.25;;;29.61
70969;BMP280;58630;43.022;25.100;2022-07-04T11:19:31;99334.22;;;29.61
70969;BMP280;58630;43.022;25.100;2022-07-04T11:21:56;99327.28;;;29.63
70969;BMP280;58630;43.022;25.100;2022-07-04T11:24:22;99329.22;;;29.59
70969;BMP280;58630;43.022;25.100;2022-07-04T11:26:48;99335.72;;;29.58
70969;BMP280;58630;43.022;25.100;2022-07-04T11:29:14;99337.59;;;29.68
70969;BMP280;58630;43.022;25.100;2022-07-04T11:31:46;99331.09;;;29.69
70969;BMP280;58630;43.022;25.100;2022-07-04T11:34:12;99327.56;;;29.79
70969;BMP280;58630;43.022;25.100;2022-07-04T11:36:38;99318.38;;;29.80
70969;BMP280;58630;43.022;25.100;2022-07-04T11:39:04;99321.66;;;29.98
70969;BMP280;58630;43.022;25.100;2022-07-04T11:41:31;99314.84;;;29.90
70969;BMP280;58630;43.022;25.100;2022-07-04T11:44:19;99313.63;;;29.98
70969;BMP280;58630;43.022;25.100;2022-07-04T11:47:16;99308.50;;;30.14
70969;BMP280;58630;43.022;25.100;2022-07-04T11:49:52;99309.94;;;30.25
70969;BMP280;58630;43.022;25.100;2022-07-04T11:52:24;99311.38;;;30.33
70969;BMP280;58630;43.022;25.100;2022-07-04T11:54:49;99300.97;;;30.42
70969;BMP280;58630;43.022;25.100;2022-07-04T12:02:20;99311.78;;;30.68
70969;BMP280;58630;43.022;25.100;2022-07-04T12:04:46;99316.28;;;30.78
70969;BMP280;58630;43.022;25.100;2022-07-04T12:07:12;99312.34;;;30.86
70969;BMP280;58630;43.022;25.100;2022-07-04T12:09:38;99302.59;;;30.99
70969;BMP280;58630;43.022;25.100;2022-07-04T12:12:04;99307.47;;;31.07
70969;BMP280;58630;43.022;25.100;2022-07-04T12:14:35;99305.00;;;31.19
70969;BMP280;58630;43.022;25.100;2022-07-04T12:17:19;99314.81;;;31.29
70969;BMP280;58630;43.022;25.100;2022-07-04T12:19:51;99303.16;;;31.39
70969;BMP280;58630;43.022;25.100;2022-07-04T12:24:55;99302.88;;;31.60
70969;BMP280;58630;43.022;25.100;2022-07-04T12:27:21;99298.06;;;31.71
70969;BMP280;58630;43.022;25.100;2022-07-04T12:29:49;99292.59;;;31.78
70969;BMP280;58630;43.022;25.100;2022-07-04T12:32:14;99289.38;;;31.86
70969;BMP280;58630;43.022;25.100;2022-07-04T12:34:39;99288.03;;;31.97
70969;BMP280;58630;43.022;25.100;2022-07-04T12:37:06;99280.34;;;32.19
70969;BMP280;58630;43.022;25.100;2022-07-04T12:39:34;99281.34;;;32.24
70969;BMP280;58630;43.022;25.100;2022-07-04T12:44:30;99272.25;;;32.38
70969;BMP280;58630;43.022;25.100;2022-07-04T12:46:56;99277.28;;;32.55
70969;BMP280;58630;43.022;25.100;2022-07-04T12:49:21;99270.88;;;32.68
70969;BMP280;58630;43.022;25.100;2022-07-04T12:51:46;99279.97;;;32.74
70969;BMP280;58630;43.022;25.100;2022-07-04T12:54:12;99272.88;;;32.84
70969;BMP280;58630;43.022;25.100;2022-07-04T12:56:38;99265.22;;;32.98
70969;BMP280;58630;43.022;25.100;2022-07-04T12:59:07;99272.28;;;33.08
70969;BMP280;58630;43.022;25.100;2022-07-04T13:01:33;99275.25;;;33.29
70969;BMP280;58630;43.022;25.100;2022-07-04T13:03:59;99278.88;;;33.39
70969;BMP280;58630;43.022;25.100;2022-07-04T13:06:25;99274.72;;;33.50
70969;BMP280;58630;43.022;25.100;2022-07-04T13:08:50;99273.34;;;33.61
70969;BMP280;58630;43.022;25.100;2022-07-04T13:11:16;99263.13;;;33.69
70969;BMP280;58630;43.022;25.100;2022-07-04T13:14:00;99271.16;;;33.84
70969;BMP280;58630;43.022;25.100;2022-07-04T13:16:25;99272.91;;;33.91
70969;BMP280;58630;43.022;25.100;2022-07-04T13:18:50;99271.13;;;34.00
70969;BMP280;58630;43.022;25.100;2022-07-04T13:21:16;99265.75;;;34.13
70969;BMP280;58630;43.022;25.100;2022-07-04T13:23:41;99260.06;;;34.23
70969;BMP280;58630;43.022;25.100;2022-07-04T13:26:07;99258.91;;;34.36
70969;BMP280;58630;43.022;25.100;2022-07-04T13:28:32;99269.94;;;34.42
70969;BMP280;58630;43.022;25.100;2022-07-04T13:30:57;99267.81;;;34.49
70969;BMP280;58630;43.022;25.100;2022-07-04T13:33:23;99264.34;;;34.61
70969;BMP280;58630;43.022;25.100;2022-07-04T13:35:48;99262.09;;;34.72
70969;BMP280;58630;43.022;25.100;2022-07-04T13:38:13;99265.13;;;34.86
70969;BMP280;58630;43.022;25.100;2022-07-04T13:40:42;99254.44;;;34.95
70969;BMP280;58630;43.022;25.100;2022-07-04T13:43:08;99256.66;;;35.09
70969;BMP280;58630;43.022;25.100;2022-07-04T13:45:36;99246.44;;;35.16
70969;BMP280;58630;43.022;25.100;2022-07-04T13:48:03;99242.19;;;35.28
70969;BMP280;58630;43.022;25.100;2022-07-04T13:50:28;99237.28;;;35.35
70969;BMP280;58630;43.022;25.100;2022-07-04T13:52:54;99240.06;;;35.44
70969;BMP280;58630;43.022;25.100;2022-07-04T13:55:19;99243.94;;;35.55
70969;BMP280;58630;43.022;25.100;2022-07-04T13:57:44;99232.41;;;35.64
70969;BMP280;58630;43.022;25.100;2022-07-04T14:00:10;99235.69;;;35.80
70969;BMP280;58630;43.022;25.100;2022-07-04T14:02:35;99242.06;;;35.86
70969;BMP280;58630;43.022;25.100;2022-07-04T14:05:00;99238.66;;;35.94
70969;BMP280;58630;43.022;25.100;2022-07-04T14:07:29;99225.19;;;36.03
70969;BMP280;58630;43.022;25.100;2022-07-04T14:09:54;99222.22;;;36.10
70969;BMP280;58630;43.022;25.100;2022-07-04T14:12:19;99225.28;;;36.21
70969;BMP280;58630;43.022;25.100;2022-07-04T14:14:45;99223.91;;;36.17